Hlavní strana
METAR-TAF:

METAR-TAF

Letiště :

Båtsfjord, Norsko

zeměpisná šířka: 70-38N, zeměpisná délka: 029-44E, výška: 10 m

Aktuální stav počasí

Zpráva byla vytvořena před 3 hodinami a 29 minutami, v 22:20 UTC
Jižní vítr 10 kt
Teplota -8°C
Vlhkost vzduchu 79%
Tlak 992 hPa
Viditelnost 10 km a více
Polojasno ve výšce 1400 ft
Polojasno ve výšce 2100 ft
přeháňky v blízkosti

METAR: ENBS 252220Z 18010KT 9999 VCSH SCT014 SCT021 M08/M11 Q0992

Čas: 02:49 (01:49 UTC)


TAF: chybějící

Stav a předpovědi počasí z více než 4 000 letišť (zprávy METAR a TAF).

Červené a žluté tečky na mapě představují dostupné meteorologické stanice.

Když kurzor umístíte na tečku, zobrazí se název stanice.

Pak kliknutím zobrazíte stav a předpověď počasí.

Chcete-li změnit mapu, kliknutím na zelené tlačítko se znaménkem +mapu přiblížíte, kliknutím na zelené tlačítko se znaménkem – mapu oddálíte a kliknutím na zelené šipky přejdete na sousední mapy.


METAR-TAF: